createdAt,value
2023-12-11T05:26:02.869Z,100.00
2023-12-11T05:30:07.733Z,100.00
2023-12-11T05:34:10.543Z,100.00
2023-12-11T05:38:13.743Z,100.00
2023-12-11T05:42:16.556Z,100.00
2023-12-11T05:46:20.144Z,100.00
2023-12-11T05:50:22.882Z,100.00
2023-12-11T05:54:26.386Z,100.00
2023-12-11T05:58:29.221Z,100.00
2023-12-11T06:02:32.478Z,100.00
2023-12-11T06:06:35.641Z,100.00
2023-12-11T06:10:38.506Z,100.00
2023-12-11T06:14:44.532Z,100.00
2023-12-11T06:18:49.260Z,100.00
2023-12-11T06:22:52.563Z,100.00
2023-12-11T06:26:55.382Z,100.00
2023-12-11T06:30:58.539Z,100.00
2023-12-11T06:35:01.498Z,100.00
2023-12-11T06:39:05.019Z,100.00
2023-12-11T06:43:07.882Z,100.00
2023-12-11T06:47:11.136Z,100.00
2023-12-11T06:51:17.195Z,100.00
2023-12-11T06:55:20.445Z,100.00
2023-12-11T06:59:23.872Z,100.00
2023-12-11T07:03:27.390Z,100.00
2023-12-11T07:07:30.323Z,100.00
2023-12-11T07:11:33.608Z,100.00
2023-12-11T07:15:36.513Z,100.00
2023-12-11T07:19:39.804Z,100.00
2023-12-11T07:23:42.990Z,100.00
2023-12-11T07:27:46.816Z,100.00
2023-12-11T07:31:49.694Z,100.00
2023-12-11T07:35:53.518Z,100.00
2023-12-11T07:39:58.191Z,100.00
2023-12-11T07:44:03.303Z,100.00
2023-12-11T07:48:07.551Z,100.00
2023-12-11T07:52:11.555Z,100.00
2023-12-11T07:56:24.733Z,100.00
2023-12-11T08:00:27.860Z,100.00
2023-12-11T08:04:31.096Z,100.00
2023-12-11T08:08:33.883Z,100.00
2023-12-11T08:12:37.199Z,100.00
2023-12-11T08:16:40.111Z,100.00
2023-12-11T08:20:45.154Z,100.00
2023-12-11T08:24:48.980Z,100.00
2023-12-11T08:28:52.209Z,100.00
2023-12-11T08:32:55.063Z,100.00
2023-12-11T08:36:58.454Z,100.00
2023-12-11T08:41:01.360Z,100.00
2023-12-11T08:45:05.840Z,100.00
2023-12-11T08:49:08.962Z,100.00
2023-12-11T08:53:12.228Z,100.00
2023-12-11T08:57:14.957Z,100.00
2023-12-11T09:01:19.111Z,100.00
2023-12-11T09:05:22.035Z,100.00
2023-12-11T09:09:25.228Z,100.00
2023-12-11T09:13:29.645Z,100.00
2023-12-11T09:17:33.732Z,100.00
2023-12-11T09:21:37.545Z,100.00
2023-12-11T09:25:40.664Z,100.00
2023-12-11T09:29:43.730Z,100.00
2023-12-11T09:33:47.429Z,100.00
2023-12-11T09:37:53.159Z,100.00
2023-12-11T09:42:01.224Z,100.00
2023-12-11T09:46:09.032Z,100.00
2023-12-11T09:50:21.701Z,100.00
2023-12-11T09:54:28.137Z,100.00
2023-12-11T09:58:33.729Z,100.00
2023-12-11T10:02:42.601Z,100.00
2023-12-11T10:06:56.020Z,100.00
2023-12-11T10:11:19.236Z,100.00
2023-12-11T10:15:26.852Z,100.00
2023-12-11T10:19:34.549Z,100.00
2023-12-11T10:23:37.880Z,100.00
2023-12-11T10:27:47.193Z,100.00
2023-12-11T10:31:52.309Z,100.00
2023-12-11T10:36:14.352Z,100.00
2023-12-11T10:40:18.166Z,100.00
2023-12-11T10:44:40.271Z,100.00
2023-12-11T10:49:27.280Z,100.00
2023-12-11T10:53:33.326Z,99.62
2023-12-11T10:57:44.639Z,90.26
2023-12-11T11:01:52.900Z,84.98
2023-12-11T11:05:57.007Z,83.94
2023-12-11T11:10:18.798Z,78.19
2023-12-11T11:14:52.429Z,78.62
2023-12-11T11:19:10.315Z,74.78
2023-12-11T11:23:20.146Z,73.67
2023-12-11T11:27:43.854Z,71.15
2023-12-11T11:36:23.205Z,74.12
2023-12-11T11:40:48.651Z,78.03
2023-12-11T11:44:58.974Z,75.50
2023-12-11T11:49:02.528Z,76.38
2023-12-11T11:53:12.764Z,75.58
2023-12-11T11:57:16.805Z,76.29
2023-12-11T12:01:21.118Z,77.52
2023-12-11T12:05:35.678Z,71.63
2023-12-11T12:09:51.394Z,69.39
2023-12-11T12:14:00.708Z,68.45
2023-12-11T12:18:10.831Z,68.66
2023-12-11T12:22:15.812Z,66.88
2023-12-11T12:26:18.838Z,69.36
2023-12-11T12:30:23.574Z,68.48
2023-12-11T12:34:28.329Z,65.11
2023-12-11T12:38:32.481Z,64.02
2023-12-11T12:42:35.405Z,67.21
2023-12-11T12:46:44.085Z,74.82
2023-12-11T12:50:47.461Z,84.81
2023-12-11T12:54:51.626Z,78.73
2023-12-11T12:58:57.382Z,75.60
2023-12-11T13:03:01.024Z,71.83
2023-12-11T13:07:13.381Z,69.16
2023-12-11T13:11:16.753Z,69.57
2023-12-11T13:15:19.519Z,68.83
2023-12-11T13:19:26.316Z,79.42
2023-12-11T13:23:29.215Z,98.71
2023-12-11T13:27:32.622Z,100.00
2023-12-11T13:31:35.618Z,100.00
2023-12-11T13:35:38.586Z,100.00
2023-12-11T13:39:41.379Z,100.00
2023-12-11T13:43:44.558Z,100.00
2023-12-11T13:47:47.320Z,100.00
2023-12-11T13:51:50.413Z,100.00
2023-12-11T13:55:53.227Z,100.00
2023-12-11T13:59:56.233Z,100.00
2023-12-11T14:03:59.075Z,100.00
2023-12-11T14:08:05.536Z,100.00
2023-12-11T14:12:08.810Z,100.00
2023-12-11T14:16:12.452Z,100.00
2023-12-11T14:20:15.309Z,100.00
2023-12-11T14:24:18.985Z,100.00
2023-12-11T14:28:21.691Z,100.00
2023-12-11T14:32:24.906Z,100.00
2023-12-11T14:36:27.993Z,100.00
2023-12-11T14:40:31.569Z,100.00
2023-12-11T14:44:35.722Z,100.00
2023-12-11T14:48:40.068Z,100.00
2023-12-11T14:52:43.493Z,100.00
2023-12-11T14:56:47.009Z,100.00
2023-12-11T15:00:49.862Z,100.00
2023-12-11T15:04:53.119Z,100.00
2023-12-11T15:08:55.878Z,100.00
2023-12-11T15:12:59.410Z,100.00
2023-12-11T15:17:02.481Z,100.00
2023-12-11T15:21:05.708Z,100.00
2023-12-11T15:25:12.337Z,100.00
2023-12-11T15:29:15.465Z,100.00
2023-12-11T15:33:18.302Z,100.00
2023-12-11T15:37:21.458Z,100.00
2023-12-11T15:41:24.174Z,100.00
2023-12-11T15:45:27.229Z,100.00
2023-12-11T15:49:30.115Z,100.00
2023-12-11T15:53:34.436Z,100.00
2023-12-11T15:57:37.138Z,100.00
2023-12-11T16:01:40.303Z,100.00
2023-12-11T16:05:43.429Z,100.00
